Time;durP1;ratioP1;P1;durP2;ratioP2;P2;SDS_P1;SDS_P2;PMS_P1;PMS_P2;Temp;Humidity;BMP_temperature;BMP_pressure;BME280_temperature;BME280_humidity;BME280_pressure;Samples;Min_cycle;Max_cycle;Signal;HPM_P1;HPM_P2
2021/05/05 00:07:55;;;;;;;3.22;1.98;;;6.90;99.90;;;;;;6780032;87;20415;-78
2021/05/05 00:17:56;;;;;;;5.43;1.98;;;7.00;99.90;;;;;;6766433;87;20186;-77
2021/05/05 00:27:57;;;;;;;3.25;1.98;;;7.30;99.90;;;;;;6773302;87;20230;-77
2021/05/05 00:37:57;;;;;;;7.37;2.00;;;7.20;99.90;;;;;;6772975;87;20216;-76
2021/05/05 00:47:58;;;;;;;6.50;1.70;;;7.10;99.90;;;;;;6771667;87;20282;-75
2021/05/05 00:57:58;;;;;;;4.28;1.48;;;7.20;99.90;;;;;;6772874;87;20259;-74
2021/05/05 01:07:59;;;;;;;3.92;1.30;;;7.20;99.90;;;;;;6769944;87;20316;-76
2021/05/05 01:17:59;;;;;;;1.92;1.05;;;7.20;99.90;;;;;;6777173;87;20231;-75
2021/05/05 01:28:00;;;;;;;3.65;1.20;;;7.10;99.90;;;;;;6777401;87;20349;-74
2021/05/05 01:38:01;;;;;;;3.50;1.13;;;7.20;99.90;;;;;;6771538;87;20207;-77
2021/05/05 01:48:07;;;;;;;3.67;1.20;;;7.10;99.90;;;;;;6773422;87;20507;-75
2021/05/05 01:58:07;;;;;;;3.83;1.50;;;6.80;99.90;;;;;;6775847;87;20234;-79
2021/05/05 02:08:08;;;;;;;4.32;1.33;;;6.50;99.90;;;;;;6773285;87;20748;-74
2021/05/05 02:18:10;;;;;;;5.65;1.60;;;6.40;99.90;;;;;;6774322;87;20235;-74
2021/05/05 02:28:11;;;;;;;4.93;1.60;;;6.40;99.90;;;;;;6774430;87;20221;-75
2021/05/05 02:38:11;;;;;;;4.97;2.00;;;6.30;99.90;;;;;;6774872;87;20198;-75
2021/05/05 02:48:12;;;;;;;6.73;2.00;;;6.20;99.90;;;;;;6776009;87;20536;-76
2021/05/05 02:58:13;;;;;;;6.68;2.42;;;6.30;99.90;;;;;;6776256;87;20555;-76
2021/05/05 03:08:14;;;;;;;5.28;1.40;;;6.40;99.90;;;;;;6774820;87;20189;-77
2021/05/05 03:18:14;;;;;;;5.60;1.67;;;6.40;99.90;;;;;;6770606;87;20973;-75
2021/05/05 03:28:15;;;;;;;4.53;1.50;;;6.50;99.90;;;;;;6775185;87;20187;-74
2021/05/05 03:38:15;;;;;;;6.85;1.90;;;6.60;99.90;;;;;;6775414;87;20211;-76
2021/05/05 03:48:16;;;;;;;8.85;1.75;;;6.80;99.90;;;;;;6771017;87;20204;-75
2021/05/05 03:58:17;;;;;;;8.60;2.37;;;6.90;99.90;;;;;;6769907;87;20206;-76
2021/05/05 04:08:18;;;;;;;7.75;2.33;;;6.70;99.90;;;;;;6770404;87;20232;-75
2021/05/05 04:18:18;;;;;;;9.10;2.75;;;6.80;99.90;;;;;;6765288;87;20474;-76
2021/05/05 04:28:18;;;;;;;12.55;2.67;;;6.70;99.90;;;;;;6773391;87;20231;-75
2021/05/05 04:38:19;;;;;;;9.05;2.70;;;6.80;99.90;;;;;;6775714;87;20354;-76
2021/05/05 04:48:20;;;;;;;8.02;2.40;;;6.90;99.90;;;;;;6774074;87;20183;-75
2021/05/05 04:58:20;;;;;;;7.97;2.25;;;7.10;99.90;;;;;;6779842;87;20574;-74
2021/05/05 05:08:21;;;;;;;7.65;2.37;;;7.10;99.90;;;;;;6774576;87;20277;-76
2021/05/05 05:18:21;;;;;;;11.12;2.72;;;7.10;99.90;;;;;;6773145;87;20303;-75
2021/05/05 05:28:22;;;;;;;8.30;2.40;;;7.20;99.90;;;;;;6768308;87;20191;-75
2021/05/05 05:38:23;;;;;;;9.10;2.92;;;7.40;99.90;;;;;;6772974;87;20196;-78
2021/05/05 05:48:23;;;;;;;5.32;2.50;;;6.80;99.90;;;;;;6774875;87;20678;-77
2021/05/05 05:58:24;;;;;;;7.72;3.28;;;6.80;99.90;;;;;;6776062;87;20290;-78
2021/05/05 06:08:25;;;;;;;9.02;3.90;;;6.90;99.90;;;;;;6771922;87;20201;-77
2021/05/05 06:18:26;;;;;;;7.30;3.20;;;7.80;99.90;;;;;;6769256;87;20200;-77
2021/05/05 06:28:26;;;;;;;6.28;3.37;;;8.70;99.90;;;;;;6767714;87;20208;-78
2021/05/05 06:38:27;;;;;;;6.40;2.80;;;8.50;99.90;;;;;;6759143;87;20180;-76
2021/05/05 06:48:27;;;;;;;5.50;1.90;;;8.30;99.90;;;;;;6759640;87;20321;-76
2021/05/05 06:58:28;;;;;;;7.62;2.08;;;8.40;99.90;;;;;;6757461;88;20552;-75
2021/05/05 07:08:29;;;;;;;3.95;2.28;;;8.70;99.90;;;;;;6760386;87;20228;-75
2021/05/05 07:18:29;;;;;;;5.80;2.25;;;7.90;99.90;;;;;;6773943;87;20219;-75
2021/05/05 07:28:30;;;;;;;3.47;1.67;;;7.30;99.90;;;;;;6773760;87;20603;-75
2021/05/05 07:48:48;;;;;;;2.40;1.65;;;6.00;99.90;;;;;;6774012;87;20193;-75
2021/05/05 07:58:49;;;;;;;4.85;1.90;;;6.20;99.90;;;;;;6773761;87;20689;-75
2021/05/05 08:08:49;;;;;;;3.37;1.40;;;7.70;99.90;;;;;;6774154;87;20221;-75
2021/05/05 08:18:50;;;;;;;3.25;1.40;;;7.60;99.90;;;;;;6772841;87;20624;-76
2021/05/05 08:28:51;;;;;;;5.30;2.17;;;8.40;99.90;;;;;;6773229;87;20619;-75
2021/05/05 08:38:54;;;;;;;4.03;1.90;;;9.60;99.90;;;;;;6772583;87;20202;-76
2021/05/05 08:48:54;;;;;;;4.87;2.20;;;10.60;99.90;;;;;;6769149;87;20690;-76
2021/05/05 08:58:55;;;;;;;7.60;2.20;;;10.30;99.90;;;;;;6772270;87;20204;-76
2021/05/05 09:08:55;;;;;;;5.00;1.77;;;11.30;99.90;;;;;;6772676;87;20589;-76
2021/05/05 09:19:04;;;;;;;3.20;1.15;;;9.70;99.90;;;;;;6774772;87;20204;-76
2021/05/05 09:29:04;;;;;;;3.28;1.67;;;6.80;99.90;;;;;;6778029;87;20191;-75
2021/05/05 09:39:08;;;;;;;3.45;1.60;;;6.50;99.90;;;;;;6772036;87;20692;-77
2021/05/05 09:49:32;;;;;;;3.10;1.70;;;7.00;99.90;;;;;;6775360;87;20226;-75
2021/05/05 10:00:03;;;;;;;4.75;1.73;;;7.70;99.90;;;;;;6757383;87;20169;-75
2021/05/05 10:10:04;;;;;;;4.35;1.70;;;9.20;99.90;;;;;;6757981;87;20177;-75
2021/05/05 10:20:06;;;;;;;6.70;1.52;;;10.00;99.90;;;;;;6757259;87;20970;-77
2021/05/05 10:30:10;;;;;;;2.72;0.93;;;10.60;99.90;;;;;;6769321;87;20248;-77
2021/05/05 10:40:22;;;;;;;4.72;1.20;;;9.60;99.90;;;;;;6768989;87;20621;-74
2021/05/05 10:50:23;;;;;;;5.43;1.42;;;8.50;99.90;;;;;;6772868;87;20305;-76
2021/05/05 11:00:44;;;;;;;3.15;1.40;;;10.50;99.90;;;;;;6773554;87;20313;-76
2021/05/05 11:10:46;;;;;;;2.97;1.45;;;11.90;99.90;;;;;;6768516;87;20604;-75
2021/05/05 11:20:46;;;;;;;3.25;1.60;;;10.20;99.90;;;;;;6768754;87;20209;-76
2021/05/05 11:30:51;;;;;;;4.18;1.37;;;9.70;99.90;;;;;;6765205;87;20646;-75
2021/05/05 11:40:55;;;;;;;4.30;1.60;;;11.60;99.90;;;;;;6770490;87;20235;-76
2021/05/05 11:50:56;;;;;;;3.55;1.35;;;12.70;99.90;;;;;;6772704;87;20199;-76
2021/05/05 12:00:56;;;;;;;3.97;1.62;;;13.40;97.30;;;;;;6769584;87;20168;-76
2021/05/05 12:11:02;;;;;;;4.55;1.80;;;11.90;98.50;;;;;;6766763;87;20187;-77
2021/05/05 12:21:29;;;;;;;5.45;1.85;;;12.20;99.30;;;;;;6766850;87;20377;-77
2021/05/05 12:31:32;;;;;;;8.27;1.40;;;12.50;97.50;;;;;;6773313;87;20397;-76
2021/05/05 12:41:41;;;;;;;3.50;0.90;;;11.90;97.60;;;;;;6775605;87;20187;-77
2021/05/05 12:51:43;;;;;;;4.12;1.17;;;11.70;98.50;;;;;;6773148;87;20359;-77
2021/05/05 13:01:43;;;;;;;3.67;1.20;;;10.80;98.40;;;;;;6774715;87;20263;-76
2021/05/05 13:11:48;;;;;;;2.20;1.20;;;10.30;99.90;;;;;;6767620;87;20214;-76
2021/05/05 13:32:39;;;;;;;3.60;1.50;;;12.20;99.10;;;;;;6767522;87;20713;-76
2021/05/05 13:42:39;;;;;;;5.00;2.10;;;13.00;96.60;;;;;;6768228;87;20216;-77
2021/05/05 13:52:42;;;;;;;6.22;2.65;;;12.90;99.30;;;;;;6764486;87;20563;-74
2021/05/05 14:02:43;;;;;;;5.70;2.17;;;9.10;99.90;;;;;;6771382;87;20176;-77
2021/05/05 14:12:44;;;;;;;3.50;1.30;;;10.10;99.90;;;;;;6769723;87;20329;-78
2021/05/05 14:22:44;;;;;;;2.85;1.20;;;10.20;99.90;;;;;;6773779;87;20184;-77
2021/05/05 14:32:45;;;;;;;2.95;1.30;;;11.60;99.90;;;;;;6767773;87;20284;-78
2021/05/05 14:53:02;;;;;;;8.00;2.17;;;11.70;99.90;;;;;;6769772;87;20350;-76
2021/05/05 15:03:03;;;;;;;3.60;1.25;;;11.20;99.90;;;;;;6772379;87;20198;-76
2021/05/05 15:53:55;;;;;;;5.65;1.60;;;12.70;96.10;;;;;;6768650;87;20179;-76
2021/05/05 16:14:29;;;;;;;5.18;1.50;;;12.10;98.50;;;;;;6760954;87;20190;-76
2021/05/05 16:45:32;;;;;;;4.70;1.25;;;11.90;93.30;;;;;;6762107;87;20724;-76
2021/05/05 16:55:45;;;;;;;3.40;1.20;;;11.50;93.80;;;;;;6764765;87;20243;-75
2021/05/05 17:16:06;;;;;;;4.80;1.48;;;11.10;94.40;;;;;;6774469;87;20167;-77
2021/05/05 18:17:39;;;;;;;5.50;1.40;;;10.20;99.90;;;;;;6772171;87;20197;-76
2021/05/05 18:27:51;;;;;;;3.87;1.30;;;9.90;99.90;;;;;;6767839;87;20236;-76
2021/05/05 18:37:51;;;;;;;3.45;1.58;;;9.70;99.90;;;;;;6757260;87;20180;-77
2021/05/05 20:20:38;;;;;;;5.95;2.40;;;8.50;99.90;;;;;;6768852;87;20195;-76
2021/05/05 22:54:12;;;;;;;2.55;0.80;;;7.30;99.90;;;;;;6772083;87;20187;-77
